Flight Track Log - Related Links

Times and Time Zones

All times are in EDT time to prevent confusion due to time zone crossing. See the DAL1789 flight status page for this flight to view local times or setup timezone preferences in your user account.

Time Position Orientation Groundspeed Altitude Reporting Facility
EDT Latitude Longitude Course Direction KTS MPH feet Rate Location/Type
Wed 07:47:33 PM 30.5031 -81.6775 327° Northwest 162 186 800  Level Jacksonville Center
Wed 07:48:33 PM 30.5569 -81.6478 25° Northeast 274 315 4,000 2,620 Climbing Jacksonville Center
Wed 07:48:44 PM 30.5675 -81.6550 329° Northwest 271 312 3,900 4,230 Descending Jacksonville Center
Wed 07:49:34 PM 30.6158 -81.6953 324° Northwest 281 323 8,300 4,050 Climbing Jacksonville Center
Wed 07:50:00 PM 30.7524 -81.8286 332° Northwest  Level FlightAware Approximate
Wed 07:50:44 PM 30.6875 -81.7547 325° Northwest 299 344 12,000  Level Jacksonville Center
Wed 07:51:00 PM 30.8402 -81.8835 332° Northwest  Level FlightAware Approximate
Wed 07:51:44 PM 30.7797 -81.8261 326° Northwest 334 384 15,300  Level Jacksonville Center
Wed 07:52:00 PM 30.9281 -81.9377 327° Northwest  Level FlightAware Approximate
Wed 07:52:44 PM 30.8661 -81.8956 325° Northwest 351 404 18,200  Level Jacksonville Center
Wed 07:53:44 PM 30.9625 -81.9647 328° Northwest 389 448 21,200 2,750 Climbing Jacksonville Center
Wed 07:54:44 PM 31.0694 -82.0169 337° Northwest 404 465 23,700 2,450 Climbing Jacksonville Center
Wed 07:55:44 PM 31.1806 -82.0669 339° North 416 479 26,100 2,250 Climbing Jacksonville Center
Wed 07:56:44 PM 31.2956 -82.1219 338° Northwest 428 493 28,200 1,450 Climbing Jacksonville Center
Wed 07:57:44 PM 31.4108 -82.1794 337° Northwest 440 506 29,000 400 Climbing Jacksonville Center
Wed 07:58:44 PM 31.5239 -82.2344 337° Northwest 438 504 29,000  Level Jacksonville Center
Wed 08:00:39 PM 31.7453 -82.3392 338° Northwest 446 513 29,000  Level Atlanta Center
Wed 08:01:39 PM 31.8547 -82.4031 334° Northwest 441 507 29,000  Level Atlanta Center
Wed 08:02:39 PM 31.9619 -82.4672 333° Northwest 441 507 29,000  Level Atlanta Center
Wed 08:03:39 PM 32.0692 -82.5317 333° Northwest 435 501 29,000  Level Atlanta Center
Wed 08:04:39 PM 32.1578 -82.6158 321° Northwest 444 511 29,000 -250 Level Atlanta Center
Wed 08:05:39 PM 32.2467 -82.7128 317° Northwest 439 505 28,500 -750 Descending Atlanta Center
Wed 08:06:39 PM 32.3333 -82.8097 317° Northwest 433 498 27,500 -1,050 Descending Atlanta Center
Wed 08:07:39 PM 32.4197 -82.9069 316° Northwest 428 493 26,400 -1,000 Descending Atlanta Center
Wed 08:08:39 PM 32.5042 -83.0044 316° Northwest 428 493 25,500 -900 Descending Atlanta Center
Wed 08:09:39 PM 32.5906 -83.0969 318° Northwest 428 493 24,600 -900 Descending Atlanta Center
Wed 08:10:39 PM 32.6725 -83.1925 316° Northwest 421 484 23,700 -850 Descending Atlanta Center
Wed 08:11:39 PM 32.7567 -83.2856 317° Northwest 411 473 22,900 -800 Descending Atlanta Center
Wed 08:12:39 PM 32.8364 -83.3764 316° Northwest 405 466 22,100 -700 Descending Atlanta Center
Wed 08:13:39 PM 32.9183 -83.4697 316° Northwest 405 466 21,500 -1,500 Descending Atlanta Center
Wed 08:14:39 PM 32.9958 -83.5608 315° West 405 466 19,100 -3,067 Descending Atlanta Center
Wed 08:16:39 PM 33.1489 -83.7386 316° Northwest 376 433 12,300 -2,333 Descending Atlanta Center
Wed 08:17:39 PM 33.2139 -83.8128 316° Northwest 347 399 12,100 -650 Descending Atlanta Center
Wed 08:18:39 PM 33.2703 -83.8797 315° West 297 342 11,000 -1,250 Descending Atlanta Center
Wed 08:19:39 PM 33.3308 -83.9394 321° Northwest 282 325 9,600 -1,350 Descending Atlanta Center
Wed 08:20:39 PM 33.3892 -83.9939 322° Northwest 277 319 8,300 -1,450 Descending Atlanta Center
Wed 08:21:39 PM 33.4478 -84.0514 321° Northwest 277 319 6,700 -1,450 Descending Atlanta Center
Wed 08:22:39 PM 33.5042 -84.1086 320° Northwest 277 319 5,400 -1,067 Descending Atlanta Center
Wed 08:23:09 PM 33.5333 -84.1333 325° Northwest 251 289 5,100 -286 Descending Atlanta TRACON
Wed 08:24:03 PM 33.5833 -84.1667 331° Northwest 228 262 5,000 -474 Descending Atlanta TRACON
Wed 08:25:03 PM 33.6167 -84.2333 301° West 222 255 4,200 -1,050 Descending Atlanta TRACON
Wed 08:26:03 PM 33.6167 -84.3000 270° West 202 232 2,900 -1,100 Descending Atlanta TRACON
Wed 08:27:03 PM 33.6167 -84.3500 270° West 142 163 2,000 -750 Descending Atlanta TRACON
Wed 08:28:03 PM 33.6167 -84.4000 270° West 109 125 1,400 -600 Descending Atlanta TRACON
Wed 08:30:00 PM 33.6367 -84.4279 270° West  Level Estimated

Login

Don't have an account? Register now (free) for customized features, flight alerts, and more!